createdAt,value
2023-05-21T00:01:02.630Z,52.90
2023-05-21T00:03:32.776Z,52.92
2023-05-21T00:06:00.206Z,52.73
2023-05-21T00:08:26.706Z,52.93
2023-05-21T00:13:41.479Z,52.83
2023-05-21T00:16:09.863Z,52.96
2023-05-21T00:18:37.159Z,52.86
2023-05-21T00:21:06.393Z,53.08
2023-05-21T00:23:32.947Z,53.18
2023-05-21T00:28:45.143Z,53.18
2023-05-21T00:31:11.674Z,53.17
2023-05-21T00:33:40.014Z,53.17
2023-05-21T00:36:07.314Z,53.20
2023-05-21T00:38:34.611Z,52.98
2023-05-21T00:43:45.688Z,53.01
2023-05-21T00:46:12.993Z,53.04
2023-05-21T00:48:40.322Z,52.91
2023-05-21T00:51:07.638Z,52.83
2023-05-21T00:53:34.180Z,52.84
2023-05-21T00:58:55.403Z,52.54
2023-05-21T01:01:21.896Z,53.13
2023-05-21T01:03:50.251Z,52.79
2023-05-21T01:06:17.514Z,52.80
2023-05-21T01:08:43.985Z,52.98
2023-05-21T01:13:56.236Z,53.10
2023-05-21T01:16:22.734Z,53.45
2023-05-21T01:18:50.145Z,53.46
2023-05-21T01:21:16.689Z,53.40
2023-05-21T01:23:43.970Z,53.24
2023-05-21T01:28:54.419Z,53.40
2023-05-21T01:31:22.749Z,53.20
2023-05-21T01:33:50.099Z,53.57
2023-05-21T01:36:17.517Z,53.27
2023-05-21T01:38:46.731Z,53.46
2023-05-21T01:43:58.034Z,53.11
2023-05-21T01:46:25.391Z,53.03
2023-05-21T01:48:51.990Z,52.84
2023-05-21T01:51:18.526Z,53.38
2023-05-21T01:53:45.036Z,53.30
2023-05-21T01:56:11.513Z,53.24
2023-05-21T01:58:38.037Z,53.34
2023-05-21T02:01:06.421Z,53.24
2023-05-21T02:03:33.075Z,53.47
2023-05-21T02:06:00.436Z,53.53
2023-05-21T02:08:26.955Z,53.38
2023-05-21T02:10:53.417Z,53.58
2023-05-21T02:13:19.946Z,53.46
2023-05-21T02:15:48.311Z,53.39
2023-05-21T02:18:14.810Z,53.72
2023-05-21T02:20:42.106Z,53.65
2023-05-21T02:23:09.396Z,53.92
2023-05-21T02:25:37.113Z,53.66
2023-05-21T02:28:03.781Z,53.16
2023-05-21T02:30:31.066Z,53.15
2023-05-21T02:32:58.386Z,53.66
2023-05-21T02:35:24.820Z,53.77
2023-05-21T02:37:51.288Z,53.69
2023-05-21T02:40:18.593Z,53.69
2023-05-21T02:42:45.121Z,53.75
2023-05-21T02:45:13.491Z,54.20
2023-05-21T02:47:41.120Z,53.97
2023-05-21T02:50:09.680Z,53.62
2023-05-21T02:52:36.966Z,53.51
2023-05-21T02:55:05.339Z,53.66
2023-05-21T02:57:32.629Z,53.70
2023-05-21T03:00:02.595Z,53.58
2023-05-21T03:02:31.014Z,53.38
2023-05-21T03:04:59.422Z,53.59
2023-05-21T03:07:25.995Z,53.76
2023-05-21T03:09:52.558Z,54.01
2023-05-21T03:12:20.873Z,53.80
2023-05-21T03:17:31.510Z,54.24
2023-05-21T03:19:59.898Z,54.29
2023-05-21T03:22:26.453Z,54.07
2023-05-21T03:24:52.972Z,54.38
2023-05-21T03:27:19.473Z,53.99
2023-05-21T03:32:31.928Z,53.88
2023-05-21T03:34:58.424Z,53.60
2023-05-21T03:37:26.757Z,53.70
2023-05-21T03:39:53.214Z,53.66
2023-05-21T03:42:19.724Z,53.77
2023-05-21T03:47:30.805Z,53.37
2023-05-21T03:49:57.351Z,53.38
2023-05-21T03:52:23.898Z,53.36
2023-05-21T03:54:52.246Z,53.06
2023-05-21T03:57:18.661Z,52.94
2023-05-21T04:02:33.938Z,52.61
2023-05-21T04:05:00.438Z,52.76
2023-05-21T04:07:27.740Z,52.62
2023-05-21T04:09:54.175Z,52.36
2023-05-21T04:12:20.703Z,52.54
2023-05-21T04:17:31.792Z,52.16
2023-05-21T04:19:58.265Z,52.00
2023-05-21T04:22:24.744Z,52.76
2023-05-21T04:24:51.201Z,52.35
2023-05-21T04:27:17.646Z,52.83
2023-05-21T04:32:27.961Z,52.24
2023-05-21T04:34:55.257Z,52.03
2023-05-21T04:37:21.647Z,52.45
2023-05-21T04:39:48.054Z,52.38
2023-05-21T04:42:15.352Z,52.02
2023-05-21T04:47:25.854Z,51.13
2023-05-21T04:49:52.272Z,51.62
2023-05-21T04:52:18.720Z,51.41
2023-05-21T04:54:45.171Z,51.67
2023-05-21T04:57:11.622Z,51.67
2023-05-21T05:02:23.141Z,51.46
2023-05-21T05:04:49.661Z,51.41
2023-05-21T05:07:16.117Z,51.48
2023-05-21T05:09:42.563Z,51.29
2023-05-21T05:12:09.029Z,50.99
2023-05-21T05:17:30.440Z,51.50
2023-05-21T05:19:56.902Z,51.16
2023-05-21T05:22:23.372Z,51.17
2023-05-21T05:24:50.660Z,50.86
2023-05-21T05:27:17.912Z,49.99
2023-05-21T05:32:28.183Z,50.72
2023-05-21T05:34:54.607Z,50.51
2023-05-21T05:37:21.011Z,50.18
2023-05-21T05:39:47.420Z,49.97
2023-05-21T05:42:13.773Z,50.11
2023-05-21T05:44:43.757Z,50.06
2023-05-21T05:47:10.220Z,49.98
2023-05-21T05:49:36.734Z,50.15
2023-05-21T05:52:05.110Z,50.09
2023-05-21T05:54:32.421Z,50.40
2023-05-21T05:56:58.844Z,50.04
2023-05-21T05:59:27.183Z,50.11
2023-05-21T06:01:53.948Z,50.19
2023-05-21T06:04:20.450Z,50.48
2023-05-21T06:06:46.956Z,50.46
2023-05-21T06:09:13.454Z,50.57
2023-05-21T06:11:40.877Z,50.20
2023-05-21T06:14:08.260Z,50.61
2023-05-21T06:16:35.606Z,49.95
2023-05-21T06:19:02.283Z,49.91
2023-05-21T06:21:28.775Z,50.21
2023-05-21T06:23:56.078Z,49.89
2023-05-21T06:26:22.583Z,49.97
2023-05-21T06:28:49.962Z,50.08
2023-05-21T06:31:17.337Z,50.11
2023-05-21T06:33:45.885Z,49.89
2023-05-21T06:36:14.494Z,50.21
2023-05-21T06:38:43.127Z,50.18
2023-05-21T06:41:10.783Z,50.00
2023-05-21T06:43:37.531Z,50.02
2023-05-21T06:46:04.840Z,50.26
2023-05-21T06:48:31.398Z,50.41
2023-05-21T06:50:57.858Z,49.76
2023-05-21T06:53:24.262Z,49.56
2023-05-21T06:55:50.711Z,49.75
2023-05-21T06:58:17.971Z,49.94
2023-05-21T07:00:44.349Z,49.97
2023-05-21T07:05:55.756Z,49.92
2023-05-21T07:08:24.041Z,49.64
2023-05-21T07:10:50.428Z,49.57
2023-05-21T07:13:17.693Z,49.43
2023-05-21T07:15:46.033Z,50.00
2023-05-21T07:20:57.616Z,50.43
2023-05-21T07:23:24.893Z,50.25
2023-05-21T07:25:52.177Z,50.21
2023-05-21T07:28:18.641Z,50.15
2023-05-21T07:30:45.177Z,50.49
2023-05-21T07:36:06.852Z,50.05
2023-05-21T07:38:34.236Z,49.85
2023-05-21T07:41:01.511Z,48.50
2023-05-21T07:43:28.012Z,49.15
2023-05-21T07:45:55.448Z,49.33
2023-05-21T07:51:06.747Z,49.43
2023-05-21T07:53:34.075Z,49.75
2023-05-21T07:56:00.599Z,49.52
2023-05-21T07:58:27.968Z,49.39
2023-05-21T08:00:54.472Z,49.30
2023-05-21T08:06:16.886Z,48.62
2023-05-21T08:08:44.194Z,49.06
2023-05-21T08:11:10.687Z,48.19
2023-05-21T08:13:37.974Z,48.25
2023-05-21T08:16:04.546Z,48.18
2023-05-21T08:21:15.753Z,48.47
2023-05-21T08:23:42.166Z,46.52
2023-05-21T08:26:09.406Z,46.16
2023-05-21T08:28:35.798Z,47.02
2023-05-21T08:31:02.233Z,45.84
2023-05-21T08:36:22.379Z,46.84
2023-05-21T08:38:48.762Z,47.00
2023-05-21T08:41:15.165Z,44.87
2023-05-21T08:43:41.619Z,45.48
2023-05-21T08:46:08.005Z,45.39
2023-05-21T08:51:19.347Z,43.18
2023-05-21T08:53:45.809Z,40.48
2023-05-21T08:56:12.317Z,41.93
2023-05-21T08:58:38.708Z,42.86
2023-05-21T09:01:05.145Z,40.07
2023-05-21T09:06:15.593Z,42.19
2023-05-21T09:08:41.981Z,41.93
2023-05-21T09:11:08.384Z,42.94
2023-05-21T09:13:36.847Z,43.62
2023-05-21T09:16:04.700Z,43.49
2023-05-21T09:21:16.138Z,42.92
2023-05-21T09:23:42.546Z,44.19
2023-05-21T09:26:09.869Z,43.95
2023-05-21T09:28:36.243Z,44.51
2023-05-21T09:31:02.612Z,43.67
2023-05-21T09:33:29.082Z,41.71
2023-05-21T09:35:55.546Z,39.83
2023-05-21T09:38:21.914Z,39.32
2023-05-21T09:40:48.305Z,40.77
2023-05-21T09:43:15.554Z,41.87
2023-05-21T09:45:41.935Z,42.86
2023-05-21T09:48:08.376Z,41.51
2023-05-21T09:50:35.105Z,42.30
2023-05-21T09:53:01.659Z,43.05
2023-05-21T09:55:28.038Z,42.56
2023-05-21T09:57:54.422Z,42.49
2023-05-21T10:00:20.841Z,42.07
2023-05-21T10:02:47.358Z,42.17
2023-05-21T10:05:13.790Z,41.98
2023-05-21T10:07:40.173Z,41.86
2023-05-21T10:10:06.585Z,42.79
2023-05-21T10:12:32.984Z,43.71
2023-05-21T10:14:59.330Z,43.78
2023-05-21T10:17:25.783Z,44.12
2023-05-21T10:19:52.133Z,43.09
2023-05-21T10:22:18.461Z,43.07
2023-05-21T10:24:44.851Z,42.76
2023-05-21T10:27:11.236Z,42.40
2023-05-21T10:29:37.619Z,42.34
2023-05-21T10:32:04.043Z,41.32
2023-05-21T10:34:30.432Z,42.62
2023-05-21T10:39:40.899Z,41.89
2023-05-21T10:42:07.302Z,42.51
2023-05-21T10:44:33.689Z,42.80
2023-05-21T10:47:00.065Z,42.34
2023-05-21T10:49:26.566Z,42.37
2023-05-21T10:54:36.785Z,42.61
2023-05-21T10:57:03.150Z,42.00
2023-05-21T10:59:29.568Z,41.96
2023-05-21T11:01:55.961Z,41.32
2023-05-21T11:04:22.337Z,41.20
2023-05-21T11:09:32.874Z,41.59
2023-05-21T11:11:59.245Z,41.58
2023-05-21T11:14:25.656Z,41.03
2023-05-21T11:16:52.077Z,42.04
2023-05-21T11:19:18.562Z,41.16
2023-05-21T11:24:29.158Z,41.75
2023-05-21T11:26:55.548Z,41.41
2023-05-21T11:29:21.940Z,41.44
2023-05-21T11:31:48.462Z,42.23
2023-05-21T11:34:15.904Z,41.70
2023-05-21T11:39:26.252Z,42.43
2023-05-21T11:41:52.646Z,42.55
2023-05-21T11:44:19.929Z,42.35
2023-05-21T11:46:46.344Z,42.04
2023-05-21T11:49:12.808Z,41.95
2023-05-21T11:54:23.348Z,42.18
2023-05-21T11:56:49.726Z,41.99
2023-05-21T11:59:18.531Z,42.51
2023-05-21T12:01:45.264Z,42.20
2023-05-21T12:04:12.570Z,41.77
2023-05-21T12:09:23.078Z,40.73
2023-05-21T12:11:49.506Z,41.85
2023-05-21T12:14:15.916Z,41.56
2023-05-21T12:16:42.374Z,40.77
2023-05-21T12:19:08.800Z,41.26
2023-05-21T12:21:35.210Z,41.33
2023-05-21T12:24:01.601Z,41.59
2023-05-21T12:26:27.979Z,40.75
2023-05-21T12:28:54.354Z,41.77
2023-05-21T12:31:20.747Z,41.61
2023-05-21T12:33:47.245Z,41.30
2023-05-21T12:36:14.493Z,41.44
2023-05-21T12:38:40.915Z,41.53
2023-05-21T12:41:07.340Z,41.16
2023-05-21T12:43:33.744Z,41.50
2023-05-21T12:46:00.224Z,42.29
2023-05-21T12:48:26.657Z,41.72
2023-05-21T12:50:53.025Z,41.48
2023-05-21T12:53:19.421Z,42.14
2023-05-21T12:55:45.809Z,41.59
2023-05-21T12:58:13.048Z,41.35
2023-05-21T13:00:39.651Z,41.83
2023-05-21T13:03:06.749Z,41.50
2023-05-21T13:05:33.512Z,40.55
2023-05-21T13:07:59.901Z,39.84
2023-05-21T13:10:26.271Z,40.82
2023-05-21T13:12:52.674Z,41.58
2023-05-21T13:15:19.378Z,41.88
2023-05-21T13:17:46.423Z,42.51
2023-05-21T13:20:14.255Z,42.26
2023-05-21T13:22:40.662Z,42.29
2023-05-21T13:25:07.033Z,42.02
2023-05-21T13:27:33.392Z,42.37
2023-05-21T13:29:59.746Z,42.52
2023-05-21T13:32:26.187Z,42.63
2023-05-21T13:34:52.635Z,42.50
2023-05-21T13:37:19.037Z,42.29
2023-05-21T13:42:29.237Z,42.33
2023-05-21T13:44:55.596Z,42.33
2023-05-21T13:47:21.956Z,41.83
2023-05-21T13:49:48.299Z,42.70
2023-05-21T13:52:14.697Z,42.22
2023-05-21T13:57:24.774Z,42.02
2023-05-21T13:59:51.167Z,42.47
2023-05-21T14:02:18.495Z,41.61
2023-05-21T14:04:44.907Z,42.20
2023-05-21T14:07:11.301Z,42.62
2023-05-21T14:12:31.775Z,42.39
2023-05-21T14:14:58.170Z,42.35
2023-05-21T14:17:24.606Z,42.28
2023-05-21T14:19:51.056Z,41.83
2023-05-21T14:22:17.456Z,42.09
2023-05-21T14:27:27.593Z,41.97
2023-05-21T14:29:53.972Z,42.38
2023-05-21T14:32:20.511Z,42.02
2023-05-21T14:34:46.879Z,42.35
2023-05-21T14:37:13.270Z,41.68
2023-05-21T14:42:23.506Z,42.27
2023-05-21T14:44:49.874Z,41.87
2023-05-21T14:47:17.123Z,42.46
2023-05-21T14:49:43.517Z,42.05
2023-05-21T14:52:10.771Z,42.47
2023-05-21T14:57:20.899Z,42.43
2023-05-21T14:59:47.279Z,42.33
2023-05-21T15:02:13.688Z,42.16
2023-05-21T15:04:40.126Z,41.32
2023-05-21T15:07:06.573Z,41.48
2023-05-21T15:12:26.678Z,41.88
2023-05-21T15:14:53.070Z,41.71
2023-05-21T15:17:20.320Z,41.42
2023-05-21T15:19:46.752Z,41.34
2023-05-21T15:22:13.195Z,41.33
2023-05-21T15:24:39.577Z,41.17
2023-05-21T15:27:07.950Z,40.90
2023-05-21T15:29:35.216Z,40.94
2023-05-21T15:32:02.500Z,41.61
2023-05-21T15:34:28.950Z,41.40
2023-05-21T15:36:55.390Z,42.29
2023-05-21T15:39:21.892Z,42.01
2023-05-21T15:41:48.362Z,42.03
2023-05-21T15:44:14.750Z,41.51
2023-05-21T15:46:41.161Z,41.86
2023-05-21T15:49:07.611Z,42.16
2023-05-21T15:51:33.996Z,42.23
2023-05-21T15:54:00.375Z,42.24
2023-05-21T15:56:26.777Z,41.81
2023-05-21T15:58:53.185Z,41.47
2023-05-21T16:01:19.550Z,41.49
2023-05-21T16:03:46.020Z,41.22
2023-05-21T16:06:13.429Z,41.33
2023-05-21T16:08:39.821Z,41.85
2023-05-21T16:11:06.207Z,41.82
2023-05-21T16:13:32.576Z,41.83
2023-05-21T16:15:58.981Z,41.86
2023-05-21T16:18:25.363Z,42.21
2023-05-21T16:20:51.741Z,41.78
2023-05-21T16:23:18.126Z,41.90
2023-05-21T16:25:44.512Z,41.58
2023-05-21T16:30:54.754Z,39.39
2023-05-21T16:33:21.153Z,40.53
2023-05-21T16:35:47.546Z,40.46
2023-05-21T16:38:14.022Z,41.13
2023-05-21T16:40:40.406Z,41.46
2023-05-21T16:45:50.651Z,41.56
2023-05-21T16:48:17.022Z,42.46
2023-05-21T16:50:43.397Z,41.86
2023-05-21T16:53:10.754Z,40.68
2023-05-21T16:55:37.420Z,40.79
2023-05-21T17:00:48.011Z,41.84
2023-05-21T17:03:15.464Z,41.84
2023-05-21T17:05:43.838Z,41.65
2023-05-21T17:08:11.175Z,41.38
2023-05-21T17:10:39.480Z,41.03
2023-05-21T17:15:49.831Z,41.67
2023-05-21T17:18:16.317Z,41.09
2023-05-21T17:20:42.787Z,41.67
2023-05-21T17:23:10.451Z,41.58
2023-05-21T17:25:37.999Z,41.48
2023-05-21T17:30:49.814Z,41.60
2023-05-21T17:33:16.474Z,41.27
2023-05-21T17:35:43.856Z,41.15
2023-05-21T17:38:13.073Z,40.77
2023-05-21T17:40:39.566Z,41.19
2023-05-21T17:45:49.780Z,41.76
2023-05-21T17:48:17.105Z,42.20
2023-05-21T17:50:43.529Z,42.35
2023-05-21T17:53:09.909Z,42.25
2023-05-21T17:55:36.661Z,42.35
2023-05-21T18:00:48.465Z,41.78
2023-05-21T18:03:15.024Z,41.91
2023-05-21T18:05:41.530Z,42.06
2023-05-21T18:08:07.901Z,41.65
2023-05-21T18:10:34.289Z,41.41
2023-05-21T18:15:44.694Z,41.77
2023-05-21T18:18:11.105Z,41.78
2023-05-21T18:20:39.308Z,42.25
2023-05-21T18:23:06.849Z,42.14
2023-05-21T18:25:33.410Z,42.36
2023-05-21T18:30:45.861Z,42.45
2023-05-21T18:33:13.222Z,42.70
2023-05-21T18:35:40.558Z,43.05
2023-05-21T18:38:07.930Z,42.51
2023-05-21T18:40:35.380Z,43.00
2023-05-21T18:45:47.514Z,42.77
2023-05-21T18:48:13.961Z,43.40
2023-05-21T18:50:40.328Z,42.84
2023-05-21T18:53:06.757Z,43.25
2023-05-21T18:55:33.157Z,43.86
2023-05-21T18:57:59.654Z,43.85
2023-05-21T19:00:26.193Z,43.46
2023-05-21T19:02:52.751Z,43.83
2023-05-21T19:05:19.310Z,43.92
2023-05-21T19:07:45.718Z,44.16
2023-05-21T19:10:12.110Z,44.45
2023-05-21T19:12:38.736Z,44.10
2023-05-21T19:15:05.138Z,44.08
2023-05-21T19:17:34.405Z,43.88
2023-05-21T19:20:00.833Z,44.15
2023-05-21T19:22:28.121Z,43.96
2023-05-21T19:24:57.297Z,44.36
2023-05-21T19:27:23.739Z,44.32
2023-05-21T19:29:50.130Z,44.13
2023-05-21T19:32:17.377Z,44.37
2023-05-21T19:34:43.758Z,44.45
2023-05-21T19:37:10.137Z,44.50
2023-05-21T19:39:36.535Z,44.70
2023-05-21T19:42:02.929Z,44.40
2023-05-21T19:44:29.332Z,44.61
2023-05-21T19:46:55.697Z,45.16
2023-05-21T19:49:22.057Z,45.03
2023-05-21T19:51:49.621Z,44.89
2023-05-21T19:54:17.009Z,45.50
2023-05-21T19:56:43.429Z,45.15
2023-05-21T19:59:09.825Z,45.64
2023-05-21T20:04:20.072Z,45.64
2023-05-21T20:06:46.604Z,45.50
2023-05-21T20:09:13.055Z,45.96
2023-05-21T20:11:39.450Z,45.91
2023-05-21T20:14:08.653Z,45.87
2023-05-21T20:19:20.167Z,45.45
2023-05-21T20:21:46.722Z,46.20
2023-05-21T20:24:14.057Z,46.32
2023-05-21T20:26:42.387Z,46.67
2023-05-21T20:29:08.879Z,46.75
2023-05-21T20:34:22.349Z,47.13
2023-05-21T20:36:48.857Z,47.35
2023-05-21T20:39:16.198Z,47.18
2023-05-21T20:41:43.486Z,47.11
2023-05-21T20:44:10.748Z,47.43
2023-05-21T20:49:23.233Z,47.29
2023-05-21T20:51:49.661Z,47.20
2023-05-21T20:54:16.956Z,47.57
2023-05-21T20:56:43.377Z,47.44
2023-05-21T20:59:12.677Z,47.43
2023-05-21T21:04:23.454Z,47.75
2023-05-21T21:06:49.895Z,47.65
2023-05-21T21:09:17.196Z,47.80
2023-05-21T21:11:43.632Z,47.69
2023-05-21T21:14:10.105Z,47.91
2023-05-21T21:19:20.764Z,48.00
2023-05-21T21:21:47.266Z,48.43
2023-05-21T21:24:15.534Z,48.47
2023-05-21T21:26:42.821Z,48.83
2023-05-21T21:29:11.150Z,48.56
2023-05-21T21:34:23.593Z,48.70
2023-05-21T21:36:52.801Z,48.98
2023-05-21T21:39:22.004Z,48.82
2023-05-21T21:41:50.354Z,49.27
2023-05-21T21:44:17.639Z,49.02
2023-05-21T21:49:32.494Z,49.05
2023-05-21T21:51:58.920Z,49.52
2023-05-21T21:54:25.365Z,49.42
2023-05-21T21:56:51.850Z,49.37
2023-05-21T21:59:18.288Z,49.05
2023-05-21T22:04:30.433Z,49.98
2023-05-21T22:06:59.619Z,49.39
2023-05-21T22:09:26.052Z,49.82
2023-05-21T22:11:52.534Z,49.57
2023-05-21T22:14:20.860Z,50.02
2023-05-21T22:19:36.534Z,49.71
2023-05-21T22:22:05.830Z,49.88
2023-05-21T22:24:34.133Z,49.80
2023-05-21T22:27:00.594Z,50.03
2023-05-21T22:29:27.132Z,50.29
2023-05-21T22:34:39.489Z,50.66
2023-05-21T22:37:06.771Z,50.67
2023-05-21T22:39:35.085Z,51.86
2023-05-21T22:42:03.431Z,50.90
2023-05-21T22:44:29.897Z,50.98
2023-05-21T22:46:56.528Z,50.93
2023-05-21T22:49:24.953Z,51.36
2023-05-21T22:51:51.416Z,50.94
2023-05-21T22:54:17.969Z,51.01
2023-05-21T22:56:44.486Z,50.89
2023-05-21T22:59:13.600Z,51.63
2023-05-21T23:01:40.137Z,51.54
2023-05-21T23:04:09.325Z,51.94
2023-05-21T23:06:35.790Z,51.61
2023-05-21T23:09:02.252Z,51.18
2023-05-21T23:11:32.214Z,51.69
2023-05-21T23:13:58.696Z,51.46
2023-05-21T23:16:25.285Z,51.34
2023-05-21T23:18:52.663Z,51.63
2023-05-21T23:21:21.070Z,50.91
2023-05-21T23:23:48.362Z,51.15
2023-05-21T23:26:15.642Z,50.90
2023-05-21T23:28:44.842Z,51.11
2023-05-21T23:31:11.373Z,50.92
2023-05-21T23:33:38.025Z,50.90
2023-05-21T23:36:04.493Z,51.58
2023-05-21T23:38:32.854Z,51.03
2023-05-21T23:40:59.377Z,51.33
2023-05-21T23:43:25.895Z,51.36
2023-05-21T23:45:54.283Z,51.47
2023-05-21T23:48:20.858Z,51.42
2023-05-21T23:50:48.138Z,51.67
2023-05-21T23:53:15.423Z,51.29
2023-05-21T23:55:42.705Z,51.80
2023-05-21T23:58:09.214Z,51.47
